sensor_id;sensor_type;location;lat;lon;timestamp;pressure;altitude;pressure_sealevel;temperature;humidity
21153;BME280;10734;44.792;20.482;2023-06-22T00:01:19;100230.84;;;24.39;nan
21153;BME280;10734;44.792;20.482;2023-06-22T00:03:46;100232.03;;;24.37;nan
21153;BME280;10734;44.792;20.482;2023-06-22T00:06:13;100233.94;;;24.36;nan
21153;BME280;10734;44.792;20.482;2023-06-22T00:08:40;100223.25;;;24.33;nan
21153;BME280;10734;44.792;20.482;2023-06-22T00:11:07;100224.44;;;24.30;nan
21153;BME280;10734;44.792;20.482;2023-06-22T00:13:33;100223.59;;;24.30;nan
21153;BME280;10734;44.792;20.482;2023-06-22T00:16:00;100224.13;;;24.25;nan
21153;BME280;10734;44.792;20.482;2023-06-22T00:18:27;100211.22;;;24.26;nan
21153;BME280;10734;44.792;20.482;2023-06-22T00:20:57;100212.94;;;24.27;nan
21153;BME280;10734;44.792;20.482;2023-06-22T00:23:25;100211.56;;;24.23;nan
21153;BME280;10734;44.792;20.482;2023-06-22T00:25:52;100204.69;;;24.19;nan
21153;BME280;10734;44.792;20.482;2023-06-22T00:28:19;100197.44;;;24.18;nan
21153;BME280;10734;44.792;20.482;2023-06-22T00:30:46;100212.41;;;24.15;nan
21153;BME280;10734;44.792;20.482;2023-06-22T00:33:14;100201.91;;;24.11;nan
21153;BME280;10734;44.792;20.482;2023-06-22T00:35:43;100205.16;;;24.06;nan
21153;BME280;10734;44.792;20.482;2023-06-22T00:38:10;100202.06;;;24.01;nan
21153;BME280;10734;44.792;20.482;2023-06-22T00:40:36;100207.38;;;23.94;nan
21153;BME280;10734;44.792;20.482;2023-06-22T00:43:03;100199.97;;;23.87;nan
21153;BME280;10734;44.792;20.482;2023-06-22T00:45:31;100196.69;;;23.83;nan
21153;BME280;10734;44.792;20.482;2023-06-22T00:47:58;100205.13;;;23.81;nan
21153;BME280;10734;44.792;20.482;2023-06-22T00:50:27;100203.56;;;23.79;nan
21153;BME280;10734;44.792;20.482;2023-06-22T00:52:56;100197.88;;;23.72;nan
21153;BME280;10734;44.792;20.482;2023-06-22T00:55:24;100193.56;;;23.70;nan
21153;BME280;10734;44.792;20.482;2023-06-22T00:57:52;100180.97;;;23.67;nan
21153;BME280;10734;44.792;20.482;2023-06-22T01:00:24;100179.44;;;23.65;nan
21153;BME280;10734;44.792;20.482;2023-06-22T01:02:52;100188.19;;;23.60;nan
21153;BME280;10734;44.792;20.482;2023-06-22T01:05:21;100191.44;;;23.55;nan
21153;BME280;10734;44.792;20.482;2023-06-22T01:10:51;100180.97;;;23.51;nan
21153;BME280;10734;44.792;20.482;2023-06-22T01:16:03;100184.50;;;23.43;nan
21153;BME280;10734;44.792;20.482;2023-06-22T01:18:34;100192.09;;;23.41;nan
21153;BME280;10734;44.792;20.482;2023-06-22T01:21:04;100190.19;;;23.42;nan
21153;BME280;10734;44.792;20.482;2023-06-22T01:29:08;100187.03;;;23.28;nan
21153;BME280;10734;44.792;20.482;2023-06-22T01:31:39;100184.47;;;23.27;nan
21153;BME280;10734;44.792;20.482;2023-06-22T01:34:08;100177.56;;;23.23;nan
21153;BME280;10734;44.792;20.482;2023-06-22T01:36:35;100173.47;;;23.27;nan
21153;BME280;10734;44.792;20.482;2023-06-22T01:39:04;100167.09;;;23.26;nan
21153;BME280;10734;44.792;20.482;2023-06-22T01:41:36;100159.91;;;23.25;nan
21153;BME280;10734;44.792;20.482;2023-06-22T01:44:06;100151.97;;;23.22;nan
21153;BME280;10734;44.792;20.482;2023-06-22T01:46:35;100150.09;;;23.23;nan
21153;BME280;10734;44.792;20.482;2023-06-22T01:49:03;100156.63;;;23.22;nan
21153;BME280;10734;44.792;20.482;2023-06-22T01:51:31;100153.16;;;23.20;nan
21153;BME280;10734;44.792;20.482;2023-06-22T01:53:57;100167.59;;;23.22;nan
21153;BME280;10734;44.792;20.482;2023-06-22T01:56:25;100158.34;;;23.23;nan
21153;BME280;10734;44.792;20.482;2023-06-22T01:59:04;100160.94;;;23.24;nan
21153;BME280;10734;44.792;20.482;2023-06-22T02:01:42;100171.22;;;23.22;nan
21153;BME280;10734;44.792;20.482;2023-06-22T02:04:23;100171.72;;;23.18;nan
21153;BME280;10734;44.792;20.482;2023-06-22T02:06:56;100170.53;;;23.20;nan
21153;BME280;10734;44.792;20.482;2023-06-22T02:09:28;100173.28;;;23.20;nan
21153;BME280;10734;44.792;20.482;2023-06-22T02:11:56;100177.88;;;23.20;nan
21153;BME280;10734;44.792;20.482;2023-06-22T02:14:24;100173.44;;;23.19;nan
21153;BME280;10734;44.792;20.482;2023-06-22T02:16:51;100173.28;;;23.20;nan
21153;BME280;10734;44.792;20.482;2023-06-22T02:19:23;100174.81;;;23.23;nan
21153;BME280;10734;44.792;20.482;2023-06-22T02:21:50;100168.84;;;23.27;nan
21153;BME280;10734;44.792;20.482;2023-06-22T02:24:17;100163.81;;;23.23;nan
21153;BME280;10734;44.792;20.482;2023-06-22T02:26:44;100166.22;;;23.18;nan
21153;BME280;10734;44.792;20.482;2023-06-22T02:29:12;100162.75;;;23.07;nan
21153;BME280;10734;44.792;20.482;2023-06-22T02:31:39;100168.19;;;22.99;nan
21153;BME280;10734;44.792;20.482;2023-06-22T02:34:06;100179.09;;;22.91;nan
21153;BME280;10734;44.792;20.482;2023-06-22T02:36:32;100174.88;;;22.97;nan
21153;BME280;10734;44.792;20.482;2023-06-22T02:38:59;100167.06;;;22.92;nan
21153;BME280;10734;44.792;20.482;2023-06-22T02:41:28;100173.47;;;22.93;nan
21153;BME280;10734;44.792;20.482;2023-06-22T02:43:54;100165.38;;;22.91;nan
21153;BME280;10734;44.792;20.482;2023-06-22T02:46:21;100175.81;;;22.87;nan
21153;BME280;10734;44.792;20.482;2023-06-22T02:48:48;100176.69;;;22.88;nan
21153;BME280;10734;44.792;20.482;2023-06-22T02:51:15;100183.88;;;22.89;nan
21153;BME280;10734;44.792;20.482;2023-06-22T02:53:42;100206.88;;;22.88;nan
21153;BME280;10734;44.792;20.482;2023-06-22T02:56:11;100212.88;;;22.83;nan
21153;BME280;10734;44.792;20.482;2023-06-22T02:58:39;100244.97;;;22.83;nan
21153;BME280;10734;44.792;20.482;2023-06-22T03:30:28;100229.06;;;23.55;nan
21153;BME280;10734;44.792;20.482;2023-06-22T03:32:55;100241.97;;;23.63;nan
21153;BME280;10734;44.792;20.482;2023-06-22T03:35:22;100225.88;;;23.68;nan
21153;BME280;10734;44.792;20.482;2023-06-22T03:40:17;100234.34;;;23.82;nan
21153;BME280;10734;44.792;20.482;2023-06-22T03:42:44;100216.13;;;23.81;nan
21153;BME280;10734;44.792;20.482;2023-06-22T03:45:11;100224.91;;;23.85;nan
21153;BME280;10734;44.792;20.482;2023-06-22T03:47:38;100223.50;;;23.81;nan
21153;BME280;10734;44.792;20.482;2023-06-22T03:50:05;100231.41;;;23.84;nan
21153;BME280;10734;44.792;20.482;2023-06-22T03:52:32;100232.47;;;23.91;nan
21153;BME280;10734;44.792;20.482;2023-06-22T03:54:59;100229.38;;;23.94;nan
21153;BME280;10734;44.792;20.482;2023-06-22T03:57:26;100223.19;;;24.00;nan
21153;BME280;10734;44.792;20.482;2023-06-22T03:59:56;100227.00;;;24.07;nan
21153;BME280;10734;44.792;20.482;2023-06-22T04:02:23;100229.78;;;24.16;nan
21153;BME280;10734;44.792;20.482;2023-06-22T04:04:50;100235.63;;;24.21;nan
21153;BME280;10734;44.792;20.482;2023-06-22T04:07:17;100243.00;;;24.20;nan
21153;BME280;10734;44.792;20.482;2023-06-22T04:09:44;100247.13;;;24.24;nan
21153;BME280;10734;44.792;20.482;2023-06-22T04:12:11;100252.81;;;24.23;nan
21153;BME280;10734;44.792;20.482;2023-06-22T04:14:37;100243.38;;;24.25;nan
21153;BME280;10734;44.792;20.482;2023-06-22T04:17:04;100240.09;;;24.22;nan
21153;BME280;10734;44.792;20.482;2023-06-22T04:19:31;100233.56;;;24.23;nan
21153;BME280;10734;44.792;20.482;2023-06-22T04:21:58;100240.25;;;24.28;nan
21153;BME280;10734;44.792;20.482;2023-06-22T04:24:25;100243.72;;;24.22;nan
21153;BME280;10734;44.792;20.482;2023-06-22T04:26:51;100237.00;;;24.17;nan
21153;BME280;10734;44.792;20.482;2023-06-22T04:29:21;100237.19;;;24.15;nan
21153;BME280;10734;44.792;20.482;2023-06-22T04:31:58;100241.78;;;24.06;nan
21153;BME280;10734;44.792;20.482;2023-06-22T04:34:29;100241.78;;;24.06;nan
21153;BME280;10734;44.792;20.482;2023-06-22T04:36:56;100232.88;;;24.13;nan
21153;BME280;10734;44.792;20.482;2023-06-22T04:39:24;100233.53;;;24.15;nan
21153;BME280;10734;44.792;20.482;2023-06-22T04:41:50;100234.25;;;24.17;nan
21153;BME280;10734;44.792;20.482;2023-06-22T04:44:18;100235.97;;;24.26;nan
21153;BME280;10734;44.792;20.482;2023-06-22T04:46:57;100238.06;;;24.32;nan
21153;BME280;10734;44.792;20.482;2023-06-22T04:49:27;100237.91;;;24.42;nan
21153;BME280;10734;44.792;20.482;2023-06-22T04:52:09;100242.22;;;24.52;nan
21153;BME280;10734;44.792;20.482;2023-06-22T04:54:38;100242.72;;;24.64;nan
21153;BME280;10734;44.792;20.482;2023-06-22T04:57:07;100238.75;;;24.75;nan
21153;BME280;10734;44.792;20.482;2023-06-22T04:59:38;100251.47;;;24.92;nan
21153;BME280;10734;44.792;20.482;2023-06-22T05:02:05;100243.88;;;25.02;nan
21153;BME280;10734;44.792;20.482;2023-06-22T05:04:32;100247.50;;;25.19;nan
21153;BME280;10734;44.792;20.482;2023-06-22T05:07:02;100248.84;;;25.32;nan
21153;BME280;10734;44.792;20.482;2023-06-22T05:09:29;100253.81;;;25.36;nan
21153;BME280;10734;44.792;20.482;2023-06-22T05:11:57;100252.59;;;25.39;nan
21153;BME280;10734;44.792;20.482;2023-06-22T05:14:24;100262.78;;;25.38;nan
21153;BME280;10734;44.792;20.482;2023-06-22T05:16:51;100260.69;;;25.40;nan
21153;BME280;10734;44.792;20.482;2023-06-22T05:19:23;100260.88;;;25.39;nan
21153;BME280;10734;44.792;20.482;2023-06-22T05:21:50;100263.94;;;25.44;nan
21153;BME280;10734;44.792;20.482;2023-06-22T05:24:17;100254.44;;;25.55;nan
21153;BME280;10734;44.792;20.482;2023-06-22T05:26:43;100251.41;;;25.81;nan
21153;BME280;10734;44.792;20.482;2023-06-22T05:29:10;100259.44;;;25.99;nan
21153;BME280;10734;44.792;20.482;2023-06-22T05:31:37;100254.22;;;26.04;nan
21153;BME280;10734;44.792;20.482;2023-06-22T05:34:04;100265.75;;;26.07;nan
21153;BME280;10734;44.792;20.482;2023-06-22T05:36:30;100274.16;;;26.14;nan
21153;BME280;10734;44.792;20.482;2023-06-22T05:38:57;100267.06;;;26.19;nan
21153;BME280;10734;44.792;20.482;2023-06-22T05:41:25;100272.72;;;26.26;nan
21153;BME280;10734;44.792;20.482;2023-06-22T05:43:51;100273.63;;;26.50;nan
21153;BME280;10734;44.792;20.482;2023-06-22T05:46:19;100273.69;;;26.79;nan
21153;BME280;10734;44.792;20.482;2023-06-22T05:48:46;100265.09;;;26.97;nan
21153;BME280;10734;44.792;20.482;2023-06-22T05:51:13;100268.44;;;27.07;nan
21153;BME280;10734;44.792;20.482;2023-06-22T05:53:39;100263.91;;;27.15;nan
21153;BME280;10734;44.792;20.482;2023-06-22T05:56:06;100265.25;;;27.19;nan
21153;BME280;10734;44.792;20.482;2023-06-22T05:58:33;100270.19;;;27.23;nan
21153;BME280;10734;44.792;20.482;2023-06-22T06:00:59;100267.81;;;27.50;nan
21153;BME280;10734;44.792;20.482;2023-06-22T06:03:27;100269.81;;;27.71;nan
21153;BME280;10734;44.792;20.482;2023-06-22T06:05:55;100262.94;;;27.81;nan
21153;BME280;10734;44.792;20.482;2023-06-22T06:08:22;100259.19;;;28.04;nan
21153;BME280;10734;44.792;20.482;2023-06-22T06:10:49;100256.56;;;28.17;nan
21153;BME280;10734;44.792;20.482;2023-06-22T06:13:15;100253.75;;;28.32;nan
21153;BME280;10734;44.792;20.482;2023-06-22T06:15:42;100257.88;;;28.58;nan
21153;BME280;10734;44.792;20.482;2023-06-22T06:18:09;100249.59;;;28.86;nan
21153;BME280;10734;44.792;20.482;2023-06-22T06:20:36;100251.72;;;29.05;nan
21153;BME280;10734;44.792;20.482;2023-06-22T06:23:03;100247.78;;;29.28;nan
21153;BME280;10734;44.792;20.482;2023-06-22T06:25:29;100254.72;;;29.38;nan
21153;BME280;10734;44.792;20.482;2023-06-22T06:27:56;100248.09;;;29.39;nan
21153;BME280;10734;44.792;20.482;2023-06-22T06:30:23;100261.75;;;29.69;nan
21153;BME280;10734;44.792;20.482;2023-06-22T06:32:50;100253.06;;;29.92;nan
21153;BME280;10734;44.792;20.482;2023-06-22T06:35:17;100251.13;;;29.79;nan
21153;BME280;10734;44.792;20.482;2023-06-22T06:37:46;100250.53;;;29.97;nan
21153;BME280;10734;44.792;20.482;2023-06-22T06:40:13;100255.50;;;30.15;nan
21153;BME280;10734;44.792;20.482;2023-06-22T06:42:43;100250.97;;;30.01;nan
21153;BME280;10734;44.792;20.482;2023-06-22T06:45:12;100249.59;;;30.38;nan
21153;BME280;10734;44.792;20.482;2023-06-22T06:47:39;100242.59;;;30.62;nan
21153;BME280;10734;44.792;20.482;2023-06-22T06:50:07;100248.19;;;30.82;nan
21153;BME280;10734;44.792;20.482;2023-06-22T06:52:35;100251.16;;;30.80;nan
21153;BME280;10734;44.792;20.482;2023-06-22T06:55:05;100248.38;;;31.00;nan
21153;BME280;10734;44.792;20.482;2023-06-22T06:57:35;100252.91;;;31.01;nan
21153;BME280;10734;44.792;20.482;2023-06-22T07:00:08;100247.53;;;31.33;nan
21153;BME280;10734;44.792;20.482;2023-06-22T07:02:43;100250.28;;;31.40;nan
21153;BME280;10734;44.792;20.482;2023-06-22T07:05:11;100245.56;;;31.27;nan
21153;BME280;10734;44.792;20.482;2023-06-22T07:07:38;100247.28;;;31.41;nan
21153;BME280;10734;44.792;20.482;2023-06-22T07:10:06;100251.13;;;31.47;nan
21153;BME280;10734;44.792;20.482;2023-06-22T07:12:33;100251.22;;;31.78;nan
21153;BME280;10734;44.792;20.482;2023-06-22T07:15:08;100249.47;;;31.97;nan
21153;BME280;10734;44.792;20.482;2023-06-22T07:17:36;100244.44;;;32.13;nan
21153;BME280;10734;44.792;20.482;2023-06-22T07:20:04;100245.88;;;32.28;nan
21153;BME280;10734;44.792;20.482;2023-06-22T07:22:43;100251.84;;;32.32;nan
21153;BME280;10734;44.792;20.482;2023-06-22T07:25:11;100251.19;;;32.30;nan
21153;BME280;10734;44.792;20.482;2023-06-22T07:27:46;100253.78;;;32.63;nan
21153;BME280;10734;44.792;20.482;2023-06-22T07:30:13;100256.22;;;32.85;nan
21153;BME280;10734;44.792;20.482;2023-06-22T07:32:40;100257.91;;;32.86;nan
21153;BME280;10734;44.792;20.482;2023-06-22T07:35:08;100265.00;;;33.13;nan
21153;BME280;10734;44.792;20.482;2023-06-22T07:37:35;100260.25;;;33.14;nan
21153;BME280;10734;44.792;20.482;2023-06-22T07:40:02;100253.78;;;32.63;nan
21153;BME280;10734;44.792;20.482;2023-06-22T07:42:32;100257.19;;;32.72;nan
21153;BME280;10734;44.792;20.482;2023-06-22T07:44:59;100250.25;;;32.49;nan
21153;BME280;10734;44.792;20.482;2023-06-22T07:47:26;100248.97;;;32.52;nan
21153;BME280;10734;44.792;20.482;2023-06-22T07:49:55;100245.66;;;32.23;nan
21153;BME280;10734;44.792;20.482;2023-06-22T07:52:24;100246.75;;;32.22;nan
21153;BME280;10734;44.792;20.482;2023-06-22T07:54:52;100242.47;;;32.20;nan
21153;BME280;10734;44.792;20.482;2023-06-22T07:57:19;100251.06;;;32.18;nan
21153;BME280;10734;44.792;20.482;2023-06-22T07:59:46;100249.63;;;32.02;nan
21153;BME280;10734;44.792;20.482;2023-06-22T08:02:13;100252.22;;;32.42;nan
21153;BME280;10734;44.792;20.482;2023-06-22T08:04:40;100256.91;;;32.48;nan
21153;BME280;10734;44.792;20.482;2023-06-22T08:07:07;100262.97;;;31.94;nan
21153;BME280;10734;44.792;20.482;2023-06-22T08:09:34;100257.34;;;32.07;nan
21153;BME280;10734;44.792;20.482;2023-06-22T08:12:01;100259.34;;;32.32;nan
21153;BME280;10734;44.792;20.482;2023-06-22T08:14:29;100260.53;;;32.11;nan
21153;BME280;10734;44.792;20.482;2023-06-22T08:16:56;100266.00;;;32.31;nan
21153;BME280;10734;44.792;20.482;2023-06-22T08:19:23;100269.47;;;31.68;nan
21153;BME280;10734;44.792;20.482;2023-06-22T08:21:50;100273.44;;;32.43;nan
21153;BME280;10734;44.792;20.482;2023-06-22T08:24:16;100276.34;;;32.87;nan
21153;BME280;10734;44.792;20.482;2023-06-22T08:26:43;100276.72;;;32.97;nan
21153;BME280;10734;44.792;20.482;2023-06-22T08:29:10;100284.41;;;33.02;nan
21153;BME280;10734;44.792;20.482;2023-06-22T08:31:37;100279.31;;;32.99;nan
21153;BME280;10734;44.792;20.482;2023-06-22T08:34:04;100273.56;;;32.62;nan
21153;BME280;10734;44.792;20.482;2023-06-22T08:36:31;100270.72;;;32.68;nan
21153;BME280;10734;44.792;20.482;2023-06-22T08:39:01;100264.63;;;32.78;nan
21153;BME280;10734;44.792;20.482;2023-06-22T08:41:30;100271.53;;;33.01;nan
21153;BME280;10734;44.792;20.482;2023-06-22T08:43:57;100268.25;;;33.10;nan
21153;BME280;10734;44.792;20.482;2023-06-22T08:46:24;100267.09;;;33.18;nan
21153;BME280;10734;44.792;20.482;2023-06-22T08:48:57;100263.00;;;33.39;nan
21153;BME280;10734;44.792;20.482;2023-06-22T08:51:27;100265.94;;;33.51;nan
21153;BME280;10734;44.792;20.482;2023-06-22T08:53:55;100270.44;;;33.70;nan
21153;BME280;10734;44.792;20.482;2023-06-22T08:56:21;100270.28;;;34.02;nan
21153;BME280;10734;44.792;20.482;2023-06-22T08:58:48;100255.34;;;34.56;nan
21153;BME280;10734;44.792;20.482;2023-06-22T09:01:15;100255.75;;;34.42;nan
21153;BME280;10734;44.792;20.482;2023-06-22T09:03:42;100258.19;;;34.68;nan
21153;BME280;10734;44.792;20.482;2023-06-22T09:06:09;100253.75;;;34.60;nan
21153;BME280;10734;44.792;20.482;2023-06-22T09:08:36;100246.69;;;35.12;nan
21153;BME280;10734;44.792;20.482;2023-06-22T09:11:03;100259.78;;;34.46;nan
21153;BME280;10734;44.792;20.482;2023-06-22T09:13:31;100250.94;;;34.19;nan
21153;BME280;10734;44.792;20.482;2023-06-22T09:15:58;100249.81;;;33.53;nan
21153;BME280;10734;44.792;20.482;2023-06-22T09:18:25;100260.91;;;33.78;nan
21153;BME280;10734;44.792;20.482;2023-06-22T09:20:52;100251.84;;;33.20;nan
21153;BME280;10734;44.792;20.482;2023-06-22T09:23:18;100261.56;;;33.36;nan
21153;BME280;10734;44.792;20.482;2023-06-22T09:25:45;100256.06;;;34.33;nan
21153;BME280;10734;44.792;20.482;2023-06-22T09:28:14;100257.78;;;35.06;nan
21153;BME280;10734;44.792;20.482;2023-06-22T09:30:43;100259.66;;;34.82;nan
21153;BME280;10734;44.792;20.482;2023-06-22T09:33:11;100258.03;;;35.17;nan
21153;BME280;10734;44.792;20.482;2023-06-22T09:35:38;100263.97;;;35.44;nan
21153;BME280;10734;44.792;20.482;2023-06-22T09:38:05;100270.03;;;35.76;nan
21153;BME280;10734;44.792;20.482;2023-06-22T09:40:32;100265.56;;;35.51;nan
21153;BME280;10734;44.792;20.482;2023-06-22T09:43:02;100267.22;;;35.88;nan
21153;BME280;10734;44.792;20.482;2023-06-22T09:45:28;100267.75;;;36.13;nan
21153;BME280;10734;44.792;20.482;2023-06-22T09:47:55;100279.63;;;36.61;nan
21153;BME280;10734;44.792;20.482;2023-06-22T09:50:22;100268.03;;;37.20;nan
21153;BME280;10734;44.792;20.482;2023-06-22T09:52:49;100273.38;;;37.55;nan
21153;BME280;10734;44.792;20.482;2023-06-22T09:55:21;100280.69;;;37.56;nan
21153;BME280;10734;44.792;20.482;2023-06-22T09:57:48;100275.06;;;37.39;nan
21153;BME280;10734;44.792;20.482;2023-06-22T10:00:16;100265.44;;;36.51;nan
21153;BME280;10734;44.792;20.482;2023-06-22T10:02:44;100266.81;;;36.82;nan
21153;BME280;10734;44.792;20.482;2023-06-22T10:05:11;100270.16;;;37.12;nan
21153;BME280;10734;44.792;20.482;2023-06-22T10:07:39;100268.56;;;37.50;nan
21153;BME280;10734;44.792;20.482;2023-06-22T10:10:10;100271.00;;;37.47;nan
21153;BME280;10734;44.792;20.482;2023-06-22T10:12:41;100270.81;;;37.53;nan
21153;BME280;10734;44.792;20.482;2023-06-22T10:15:10;100264.59;;;37.90;nan
21153;BME280;10734;44.792;20.482;2023-06-22T10:17:37;100254.03;;;37.80;nan
21153;BME280;10734;44.792;20.482;2023-06-22T10:20:05;100253.84;;;37.65;nan
21153;BME280;10734;44.792;20.482;2023-06-22T10:22:42;100255.28;;;37.90;nan
21153;BME280;10734;44.792;20.482;2023-06-22T10:25:09;100245.41;;;37.87;nan
21153;BME280;10734;44.792;20.482;2023-06-22T10:27:37;100243.03;;;37.96;nan
21153;BME280;10734;44.792;20.482;2023-06-22T10:30:10;100239.06;;;37.92;nan
21153;BME280;10734;44.792;20.482;2023-06-22T10:32:40;100245.75;;;37.69;nan
21153;BME280;10734;44.792;20.482;2023-06-22T10:35:07;100230.44;;;36.87;nan
21153;BME280;10734;44.792;20.482;2023-06-22T10:37:35;100242.28;;;35.74;nan
21153;BME280;10734;44.792;20.482;2023-06-22T10:40:02;100237.31;;;35.53;nan
21153;BME280;10734;44.792;20.482;2023-06-22T10:42:30;100238.63;;;35.74;nan
21153;BME280;10734;44.792;20.482;2023-06-22T10:44:57;100240.97;;;35.30;nan
21153;BME280;10734;44.792;20.482;2023-06-22T10:47:24;100236.09;;;35.37;nan
21153;BME280;10734;44.792;20.482;2023-06-22T10:49:50;100235.97;;;35.44;nan
21153;BME280;10734;44.792;20.482;2023-06-22T10:52:17;100228.91;;;35.93;nan
21153;BME280;10734;44.792;20.482;2023-06-22T10:54:44;100231.31;;;35.49;nan
21153;BME280;10734;44.792;20.482;2023-06-22T10:57:11;100231.84;;;35.11;nan
21153;BME280;10734;44.792;20.482;2023-06-22T10:59:37;100230.03;;;35.17;nan
21153;BME280;10734;44.792;20.482;2023-06-22T11:02:04;100229.41;;;35.26;nan
21153;BME280;10734;44.792;20.482;2023-06-22T11:04:31;100229.66;;;35.13;nan
21153;BME280;10734;44.792;20.482;2023-06-22T11:06:58;100234.03;;;35.21;nan
21153;BME280;10734;44.792;20.482;2023-06-22T11:09:25;100221.53;;;35.87;nan
21153;BME280;10734;44.792;20.482;2023-06-22T11:11:55;100227.25;;;36.04;nan
21153;BME280;10734;44.792;20.482;2023-06-22T11:14:22;100221.00;;;36.31;nan
21153;BME280;10734;44.792;20.482;2023-06-22T11:16:49;100226.16;;;36.22;nan
21153;BME280;10734;44.792;20.482;2023-06-22T11:19:16;100218.34;;;36.24;nan
21153;BME280;10734;44.792;20.482;2023-06-22T11:21:43;100218.78;;;36.61;nan
21153;BME280;10734;44.792;20.482;2023-06-22T11:24:10;100211.19;;;36.79;nan
21153;BME280;10734;44.792;20.482;2023-06-22T11:26:37;100221.44;;;37.02;nan
21153;BME280;10734;44.792;20.482;2023-06-22T11:29:03;100213.00;;;37.18;nan
21153;BME280;10734;44.792;20.482;2023-06-22T11:31:35;100209.91;;;37.37;nan
21153;BME280;10734;44.792;20.482;2023-06-22T11:34:02;100208.38;;;37.68;nan
21153;BME280;10734;44.792;20.482;2023-06-22T11:36:29;100217.59;;;37.85;nan
21153;BME280;10734;44.792;20.482;2023-06-22T11:38:59;100203.81;;;37.62;nan
21153;BME280;10734;44.792;20.482;2023-06-22T11:41:26;100207.38;;;37.18;nan
21153;BME280;10734;44.792;20.482;2023-06-22T11:43:52;100196.88;;;35.61;nan
21153;BME280;10734;44.792;20.482;2023-06-22T11:46:19;100200.63;;;35.66;nan
21153;BME280;10734;44.792;20.482;2023-06-22T11:48:46;100187.38;;;35.90;nan
21153;BME280;10734;44.792;20.482;2023-06-22T11:51:13;100182.31;;;36.16;nan
21153;BME280;10734;44.792;20.482;2023-06-22T11:53:40;100191.56;;;36.16;nan
21153;BME280;10734;44.792;20.482;2023-06-22T11:56:06;100193.63;;;35.28;nan
21153;BME280;10734;44.792;20.482;2023-06-22T11:58:35;100184.63;;;35.26;nan
21153;BME280;10734;44.792;20.482;2023-06-22T12:01:01;100176.28;;;35.95;nan
21153;BME280;10734;44.792;20.482;2023-06-22T12:03:28;100175.03;;;36.15;nan
21153;BME280;10734;44.792;20.482;2023-06-22T12:05:56;100167.22;;;35.76;nan
21153;BME280;10734;44.792;20.482;2023-06-22T12:08:23;100173.63;;;35.60;nan
21153;BME280;10734;44.792;20.482;2023-06-22T12:10:51;100172.44;;;35.85;nan
21153;BME280;10734;44.792;20.482;2023-06-22T12:13:18;100174.41;;;36.58;nan
21153;BME280;10734;44.792;20.482;2023-06-22T12:15:45;100174.03;;;36.88;nan
21153;BME280;10734;44.792;20.482;2023-06-22T12:18:12;100173.66;;;36.97;nan
21153;BME280;10734;44.792;20.482;2023-06-22T12:20:40;100168.34;;;37.17;nan
21153;BME280;10734;44.792;20.482;2023-06-22T12:23:07;100179.50;;;36.61;nan
21153;BME280;10734;44.792;20.482;2023-06-22T12:25:34;100166.75;;;36.70;nan
21153;BME280;10734;44.792;20.482;2023-06-22T12:28:01;100160.69;;;36.79;nan
21153;BME280;10734;44.792;20.482;2023-06-22T12:30:28;100158.84;;;37.01;nan
21153;BME280;10734;44.792;20.482;2023-06-22T12:32:55;100155.34;;;37.33;nan
21153;BME280;10734;44.792;20.482;2023-06-22T12:35:22;100155.38;;;37.55;nan
21153;BME280;10734;44.792;20.482;2023-06-22T12:37:49;100149.09;;;37.70;nan
21153;BME280;10734;44.792;20.482;2023-06-22T12:40:16;100153.16;;;37.57;nan
21153;BME280;10734;44.792;20.482;2023-06-22T12:42:44;100146.78;;;37.23;nan
21153;BME280;10734;44.792;20.482;2023-06-22T12:45:11;100152.88;;;36.98;nan
21153;BME280;10734;44.792;20.482;2023-06-22T12:47:38;100148.44;;;37.40;nan
21153;BME280;10734;44.792;20.482;2023-06-22T12:50:05;100154.16;;;37.68;nan
21153;BME280;10734;44.792;20.482;2023-06-22T12:52:32;100146.78;;;37.23;nan
21153;BME280;10734;44.792;20.482;2023-06-22T12:54:59;100144.13;;;36.77;nan
21153;BME280;10734;44.792;20.482;2023-06-22T12:57:26;100138.44;;;37.28;nan
21153;BME280;10734;44.792;20.482;2023-06-22T12:59:53;100143.13;;;36.66;nan
21153;BME280;10734;44.792;20.482;2023-06-22T13:02:19;100132.47;;;36.68;nan
21153;BME280;10734;44.792;20.482;2023-06-22T13:04:46;100129.41;;;37.26;nan
21153;BME280;10734;44.792;20.482;2023-06-22T13:07:13;100129.84;;;37.56;nan
21153;BME280;10734;44.792;20.482;2023-06-22T13:09:48;100120.44;;;37.46;nan
21153;BME280;10734;44.792;20.482;2023-06-22T13:12:19;100121.09;;;37.53;nan
21153;BME280;10734;44.792;20.482;2023-06-22T13:14:47;100128.50;;;37.42;nan
21153;BME280;10734;44.792;20.482;2023-06-22T13:17:14;100134.16;;;37.64;nan
21153;BME280;10734;44.792;20.482;2023-06-22T13:19:41;100129.13;;;37.44;nan
21153;BME280;10734;44.792;20.482;2023-06-22T13:22:30;100134.56;;;37.51;nan
21153;BME280;10734;44.792;20.482;2023-06-22T13:24:58;100127.53;;;37.31;nan
21153;BME280;10734;44.792;20.482;2023-06-22T13:27:26;100118.09;;;37.86;nan
21153;BME280;10734;44.792;20.482;2023-06-22T13:29:52;100118.69;;;37.88;nan
21153;BME280;10734;44.792;20.482;2023-06-22T13:32:19;100113.13;;;37.06;nan
21153;BME280;10734;44.792;20.482;2023-06-22T13:34:46;100116.22;;;36.87;nan
21153;BME280;10734;44.792;20.482;2023-06-22T13:37:13;100112.38;;;37.10;nan
21153;BME280;10734;44.792;20.482;2023-06-22T13:39:40;100116.69;;;37.18;nan
21153;BME280;10734;44.792;20.482;2023-06-22T13:42:07;100119.78;;;37.60;nan
21153;BME280;10734;44.792;20.482;2023-06-22T13:44:33;100108.84;;;37.42;nan
21153;BME280;10734;44.792;20.482;2023-06-22T13:47:00;100112.34;;;37.49;nan